createdAt,value
2023-01-25T00:02:23.514Z,101990.75
2023-01-25T00:04:49.991Z,101990.66
2023-01-25T00:07:16.487Z,101988.72
2023-01-25T00:09:42.898Z,101985.00
2023-01-25T00:12:09.442Z,101983.69
2023-01-25T00:14:36.032Z,101981.31
2023-01-25T00:17:02.431Z,101983.00
2023-01-25T00:19:29.947Z,101970.34
2023-01-25T00:21:56.484Z,101977.00
2023-01-25T00:24:23.441Z,101978.53
2023-01-25T00:26:49.934Z,101987.09
2023-01-25T00:29:16.336Z,101988.69
2023-01-25T00:31:48.950Z,101984.84
2023-01-25T00:34:24.860Z,101980.28
2023-01-25T00:37:12.146Z,101977.84
2023-01-25T00:39:42.209Z,101988.50
2023-01-25T00:42:11.020Z,101988.25
2023-01-25T00:44:38.585Z,101983.59
2023-01-25T00:47:08.007Z,101981.66
2023-01-25T00:49:34.656Z,101979.66
2023-01-25T00:52:01.125Z,101979.16
2023-01-25T00:54:27.552Z,101976.41
2023-01-25T00:56:56.233Z,101977.81
2023-01-25T00:59:23.798Z,101976.28
2023-01-25T01:01:50.892Z,101978.53
2023-01-25T01:04:17.700Z,101974.13
2023-01-25T01:06:47.959Z,101975.63
2023-01-25T01:09:18.279Z,101972.75
2023-01-25T01:11:45.479Z,101968.47
2023-01-25T01:14:12.463Z,101963.91
2023-01-25T01:16:39.241Z,101959.00
2023-01-25T01:19:06.001Z,101964.50
2023-01-25T01:21:32.900Z,101958.84
2023-01-25T01:24:00.069Z,101961.06
2023-01-25T01:26:27.483Z,101956.41
2023-01-25T01:28:54.070Z,101947.69
2023-01-25T01:31:23.209Z,101944.34
2023-01-25T01:33:51.052Z,101945.84
2023-01-25T01:36:18.829Z,101940.53
2023-01-25T01:38:46.524Z,101927.38
2023-01-25T01:41:13.804Z,101926.78
2023-01-25T01:43:40.664Z,101915.22
2023-01-25T01:46:16.122Z,101919.13
2023-01-25T01:49:01.953Z,101923.63
2023-01-25T01:51:43.262Z,101920.03
2023-01-25T01:54:18.339Z,101920.28
2023-01-25T01:57:05.479Z,101908.97
2023-01-25T01:59:39.855Z,101909.38
2023-01-25T02:02:07.162Z,101906.19
2023-01-25T02:04:33.982Z,101903.63
2023-01-25T02:07:07.386Z,101896.31
2023-01-25T02:09:35.295Z,101902.63
2023-01-25T02:12:02.364Z,101899.41
2023-01-25T02:14:29.687Z,101902.72
2023-01-25T02:16:57.106Z,101892.16
2023-01-25T02:19:42.143Z,101892.31
2023-01-25T02:22:10.808Z,101888.41
2023-01-25T02:24:38.615Z,101878.16
2023-01-25T02:27:05.724Z,101876.00
2023-01-25T02:29:33.252Z,101873.91
2023-01-25T02:32:03.378Z,101872.66
2023-01-25T02:34:30.073Z,101876.94
2023-01-25T02:36:57.308Z,101879.66
2023-01-25T02:39:26.642Z,101878.31
2023-01-25T02:41:53.173Z,101871.75
2023-01-25T02:44:29.263Z,101859.69
2023-01-25T02:46:56.620Z,101853.50
2023-01-25T02:49:23.546Z,101853.44
2023-01-25T02:51:55.882Z,101852.72
2023-01-25T02:54:23.992Z,101850.44
2023-01-25T02:56:50.583Z,101841.94
2023-01-25T02:59:18.931Z,101844.03
2023-01-25T03:01:45.740Z,101841.03
2023-01-25T03:04:12.692Z,101834.28
2023-01-25T03:06:39.845Z,101851.78
2023-01-25T03:09:08.032Z,101848.88
2023-01-25T03:11:34.827Z,101845.53
2023-01-25T03:14:01.910Z,101842.44
2023-01-25T03:16:30.861Z,101849.94
2023-01-25T03:18:57.895Z,101845.78
2023-01-25T03:21:24.668Z,101839.88
2023-01-25T03:23:56.940Z,101836.47
2023-01-25T03:26:23.967Z,101833.13
2023-01-25T03:28:51.659Z,101833.78
2023-01-25T03:31:19.330Z,101839.47
2023-01-25T03:33:46.867Z,101829.78
2023-01-25T03:36:13.475Z,101829.75
2023-01-25T03:38:40.008Z,101836.19
2023-01-25T03:41:07.844Z,101837.28
2023-01-25T03:43:34.918Z,101832.28
2023-01-25T03:46:01.993Z,101834.19
2023-01-25T03:48:29.208Z,101834.19
2023-01-25T03:50:58.663Z,101832.50
2023-01-25T03:53:29.917Z,101824.25
2023-01-25T03:56:08.321Z,101832.38
2023-01-25T03:58:36.022Z,101830.13
2023-01-25T04:01:04.037Z,101836.28
2023-01-25T04:03:31.408Z,101832.28
2023-01-25T04:05:58.035Z,101831.63
2023-01-25T04:08:25.099Z,101819.31
2023-01-25T04:10:53.012Z,101816.31
2023-01-25T04:13:23.578Z,101816.47
2023-01-25T04:15:49.936Z,101812.06
2023-01-25T04:18:16.804Z,101808.81
2023-01-25T04:20:44.184Z,101804.16
2023-01-25T04:23:11.350Z,101813.06
2023-01-25T04:25:38.745Z,101815.66
2023-01-25T04:28:05.377Z,101816.47
2023-01-25T04:30:31.980Z,101811.47
2023-01-25T04:33:05.770Z,101810.56
2023-01-25T04:35:32.419Z,101804.47
2023-01-25T04:37:59.714Z,101820.03
2023-01-25T04:40:26.821Z,101816.06
2023-01-25T04:42:53.213Z,101817.72
2023-01-25T04:45:19.618Z,101814.22
2023-01-25T04:47:46.831Z,101814.97
2023-01-25T04:50:13.484Z,101812.16
2023-01-25T04:52:40.155Z,101809.41
2023-01-25T04:55:06.951Z,101812.47
2023-01-25T04:57:33.904Z,101812.72
2023-01-25T05:00:00.439Z,101816.31
2023-01-25T05:02:27.467Z,101806.31
2023-01-25T05:04:53.828Z,101808.06
2023-01-25T05:07:20.251Z,101808.75
2023-01-25T05:09:46.624Z,101807.16
2023-01-25T05:12:13.697Z,101808.16
2023-01-25T05:14:40.418Z,101807.25
2023-01-25T05:17:08.691Z,101797.66
2023-01-25T05:19:35.967Z,101799.41
2023-01-25T05:22:03.658Z,101799.31
2023-01-25T05:24:32.067Z,101789.84
2023-01-25T05:27:01.601Z,101790.59
2023-01-25T05:29:28.822Z,101798.16
2023-01-25T05:31:55.502Z,101798.28
2023-01-25T05:34:22.457Z,101789.88
2023-01-25T05:36:49.050Z,101788.72
2023-01-25T05:39:15.427Z,101781.66
2023-01-25T05:41:41.746Z,101779.16
2023-01-25T05:44:08.198Z,101782.84
2023-01-25T05:46:34.787Z,101777.00
2023-01-25T05:49:01.493Z,101780.41
2023-01-25T05:51:27.911Z,101779.97
2023-01-25T05:53:56.121Z,101767.50
2023-01-25T05:56:23.015Z,101771.34
2023-01-25T05:58:54.004Z,101769.16
2023-01-25T06:01:20.895Z,101764.34
2023-01-25T06:03:48.113Z,101766.75
2023-01-25T06:06:14.565Z,101770.16
2023-01-25T06:08:41.213Z,101768.88
2023-01-25T06:11:12.519Z,101763.97
2023-01-25T06:13:39.087Z,101771.09
2023-01-25T06:16:07.011Z,101762.19
2023-01-25T06:18:35.006Z,101763.59
2023-01-25T06:21:02.372Z,101769.34
2023-01-25T06:23:29.234Z,101762.09
2023-01-25T06:26:05.468Z,101760.34
2023-01-25T06:28:32.858Z,101764.34
2023-01-25T06:31:11.728Z,101765.34
2023-01-25T06:33:38.693Z,101761.00
2023-01-25T06:36:07.947Z,101767.09
2023-01-25T06:38:34.596Z,101759.88
2023-01-25T06:41:02.735Z,101762.38
2023-01-25T06:43:30.190Z,101753.44
2023-01-25T06:46:00.949Z,101755.28
2023-01-25T06:48:28.392Z,101754.34
2023-01-25T06:51:02.079Z,101756.84
2023-01-25T06:53:31.879Z,101755.94
2023-01-25T06:56:01.372Z,101759.00
2023-01-25T06:58:28.912Z,101756.50
2023-01-25T07:01:03.847Z,101756.25
2023-01-25T07:03:31.062Z,101745.94
2023-01-25T07:06:02.212Z,101745.03
2023-01-25T07:08:29.345Z,101741.88
2023-01-25T07:10:59.190Z,101735.91
2023-01-25T07:13:26.631Z,101737.16
2023-01-25T07:15:54.896Z,101735.41
2023-01-25T07:18:21.758Z,101727.06
2023-01-25T07:20:48.144Z,101724.97
2023-01-25T07:23:14.733Z,101726.06
2023-01-25T07:25:48.755Z,101728.81
2023-01-25T07:28:16.100Z,101723.25
2023-01-25T07:30:43.240Z,101721.59
2023-01-25T07:33:10.774Z,101719.25
2023-01-25T07:35:37.575Z,101714.19
2023-01-25T07:38:04.271Z,101712.09
2023-01-25T07:40:30.777Z,101708.59
2023-01-25T07:42:58.694Z,101707.09
2023-01-25T07:45:30.503Z,101709.94
2023-01-25T07:47:58.800Z,101708.19
2023-01-25T07:50:26.797Z,101697.69
2023-01-25T07:52:54.111Z,101702.75
2023-01-25T07:55:21.024Z,101699.94
2023-01-25T07:57:47.978Z,101694.84
2023-01-25T08:00:14.806Z,101693.53
2023-01-25T08:02:41.540Z,101691.47
2023-01-25T08:05:08.647Z,101680.41
2023-01-25T08:07:35.447Z,101676.72
2023-01-25T08:10:05.603Z,101685.28
2023-01-25T08:12:34.579Z,101678.09
2023-01-25T08:15:01.917Z,101678.66
2023-01-25T08:17:31.913Z,101677.25
2023-01-25T08:19:59.871Z,101676.94
2023-01-25T08:22:27.572Z,101679.09
2023-01-25T08:24:54.371Z,101674.78
2023-01-25T08:27:20.898Z,101678.22
2023-01-25T08:29:47.344Z,101678.13
2023-01-25T08:32:13.702Z,101685.78
2023-01-25T08:34:40.978Z,101683.69
2023-01-25T08:37:07.467Z,101686.84
2023-01-25T08:39:34.028Z,101684.53
2023-01-25T08:42:00.446Z,101678.59
2023-01-25T08:44:26.852Z,101679.25
2023-01-25T08:46:53.224Z,101675.41
2023-01-25T08:49:19.592Z,101677.06
2023-01-25T08:51:47.269Z,101665.56
2023-01-25T08:54:14.185Z,101677.66
2023-01-25T08:56:41.122Z,101677.41
2023-01-25T08:59:10.019Z,101677.56
2023-01-25T09:01:36.540Z,101661.81
2023-01-25T09:04:03.024Z,101662.41
2023-01-25T09:06:30.522Z,101666.06
2023-01-25T09:08:58.882Z,101662.47
2023-01-25T09:11:25.473Z,101657.97
2023-01-25T09:13:52.054Z,101662.75
2023-01-25T09:16:27.935Z,101655.59
2023-01-25T09:18:56.177Z,101659.06
2023-01-25T09:21:22.741Z,101647.38
2023-01-25T09:24:08.930Z,101644.84
2023-01-25T09:26:39.150Z,101643.91
2023-01-25T09:29:07.937Z,101637.75
2023-01-25T09:31:35.401Z,101634.19
2023-01-25T09:34:02.041Z,101639.19
2023-01-25T09:36:28.613Z,101642.75
2023-01-25T09:38:55.446Z,101640.44
2023-01-25T09:41:58.376Z,101632.50
2023-01-25T09:44:52.295Z,101634.19
2023-01-25T09:47:27.804Z,101630.16
2023-01-25T09:49:57.154Z,101624.84
2023-01-25T09:52:42.795Z,101627.00
2023-01-25T09:55:14.273Z,101632.31
2023-01-25T09:57:42.909Z,101640.03
2023-01-25T10:00:16.716Z,101640.34
2023-01-25T10:02:52.085Z,101639.63
2023-01-25T10:05:21.892Z,101638.94
2023-01-25T10:07:58.763Z,101631.53
2023-01-25T10:10:39.543Z,101637.41
2023-01-25T10:13:11.973Z,101630.13
2023-01-25T10:15:41.498Z,101632.41
2023-01-25T10:18:23.276Z,101632.47
2023-01-25T10:20:54.958Z,101622.50
2023-01-25T10:23:39.581Z,101608.66
2023-01-25T10:26:33.297Z,101605.69
2023-01-25T10:29:11.093Z,101614.06
2023-01-25T10:31:44.666Z,101611.59
2023-01-25T10:34:22.011Z,101612.34
2023-01-25T10:36:56.876Z,101605.44
2023-01-25T10:39:34.102Z,101597.72
2023-01-25T10:42:05.491Z,101589.31
2023-01-25T10:44:36.647Z,101587.53
2023-01-25T10:47:12.218Z,101581.75
2023-01-25T10:49:51.387Z,101579.44
2023-01-25T10:52:26.050Z,101562.03
2023-01-25T10:55:14.231Z,101568.03
2023-01-25T10:57:44.256Z,101570.38
2023-01-25T11:00:42.328Z,101560.88
2023-01-25T11:03:38.947Z,101552.91
2023-01-25T11:06:06.409Z,101539.41
2023-01-25T11:08:36.045Z,101537.00
2023-01-25T11:11:25.629Z,101535.56
2023-01-25T11:13:55.302Z,101531.84
2023-01-25T11:16:32.073Z,101530.88
2023-01-25T11:19:00.566Z,101526.97
2023-01-25T11:21:31.869Z,101532.59
2023-01-25T11:24:15.007Z,101532.66
2023-01-25T11:26:41.711Z,101530.69
2023-01-25T11:29:20.162Z,101523.59
2023-01-25T11:31:49.348Z,101523.19
2023-01-25T11:34:21.025Z,101519.69
2023-01-25T11:37:18.475Z,101501.84
2023-01-25T11:39:48.658Z,101497.28
2023-01-25T11:42:24.172Z,101491.78
2023-01-25T11:45:08.463Z,101480.28
2023-01-25T11:47:53.491Z,101476.84
2023-01-25T11:50:19.849Z,101477.63
2023-01-25T11:53:14.466Z,101474.09
2023-01-25T11:55:49.602Z,101467.47
2023-01-25T11:58:40.569Z,101463.94
2023-01-25T12:01:38.645Z,101459.44
2023-01-25T12:04:36.657Z,101450.34
2023-01-25T12:07:05.503Z,101446.78
2023-01-25T12:09:46.643Z,101441.19
2023-01-25T12:12:18.972Z,101428.34
2023-01-25T12:15:16.581Z,101426.69
2023-01-25T12:18:04.255Z,101425.16
2023-01-25T12:20:36.888Z,101417.22
2023-01-25T12:23:22.208Z,101411.72
2023-01-25T12:26:10.540Z,101407.13
2023-01-25T12:28:43.540Z,101398.22
2023-01-25T12:31:23.738Z,101393.06
2023-01-25T12:34:03.644Z,101390.97
2023-01-25T12:36:44.222Z,101392.16
2023-01-25T12:39:20.878Z,101386.63
2023-01-25T12:42:15.294Z,101377.91
2023-01-25T12:44:45.167Z,101375.22
2023-01-25T12:47:20.682Z,101371.97
2023-01-25T12:50:13.659Z,101376.41
2023-01-25T12:52:52.595Z,101366.22
2023-01-25T12:55:19.387Z,101367.28
2023-01-25T12:58:00.897Z,101363.34
2023-01-25T13:00:35.523Z,101367.72
2023-01-25T13:03:31.737Z,101359.28
2023-01-25T13:06:26.194Z,101351.41
2023-01-25T13:09:03.868Z,101350.94
2023-01-25T13:11:33.816Z,101345.06
2023-01-25T13:14:15.864Z,101343.38
2023-01-25T13:16:51.855Z,101347.31
2023-01-25T13:19:29.567Z,101327.53
2023-01-25T13:21:58.332Z,101336.13
2023-01-25T13:24:32.617Z,101335.09
2023-01-25T13:27:01.792Z,101334.50
2023-01-25T13:29:42.845Z,101322.63
2023-01-25T13:32:12.412Z,101321.84
2023-01-25T13:34:39.339Z,101319.50
2023-01-25T13:37:26.202Z,101316.97
2023-01-25T13:39:57.526Z,101314.84
2023-01-25T13:42:25.670Z,101311.78
2023-01-25T13:45:01.933Z,101308.00
2023-01-25T13:47:37.873Z,101302.31
2023-01-25T13:50:21.158Z,101294.97
2023-01-25T13:53:17.735Z,101294.97
2023-01-25T13:55:49.848Z,101293.53
2023-01-25T13:58:28.291Z,101295.03
2023-01-25T14:00:57.893Z,101286.00
2023-01-25T14:03:59.592Z,101284.75
2023-01-25T14:06:29.405Z,101282.44
2023-01-25T14:08:58.408Z,101282.13
2023-01-25T14:11:30.583Z,101275.28
2023-01-25T14:14:17.910Z,101268.78
2023-01-25T14:16:45.078Z,101261.28
2023-01-25T14:19:25.788Z,101265.72
2023-01-25T14:22:11.105Z,101263.47
2023-01-25T14:24:37.702Z,101260.78
2023-01-25T14:27:06.970Z,101257.84
2023-01-25T14:29:35.349Z,101259.44
2023-01-25T14:32:03.073Z,101254.78
2023-01-25T14:34:29.518Z,101258.44
2023-01-25T14:37:18.025Z,101248.38
2023-01-25T14:39:45.651Z,101248.38
2023-01-25T14:42:12.347Z,101247.25
2023-01-25T14:44:38.963Z,101238.81
2023-01-25T14:47:31.075Z,101236.38
2023-01-25T14:50:32.585Z,101233.56
2023-01-25T14:53:06.200Z,101227.44
2023-01-25T14:55:32.621Z,101218.84
2023-01-25T14:58:00.907Z,101214.97
2023-01-25T15:00:31.953Z,101216.50
2023-01-25T15:03:05.435Z,101218.09
2023-01-25T15:05:34.632Z,101216.88
2023-01-25T15:08:07.051Z,101212.03
2023-01-25T15:10:56.916Z,101211.19
2023-01-25T15:13:28.115Z,101201.09
2023-01-25T15:15:59.867Z,101197.84
2023-01-25T15:18:50.600Z,101196.06
2023-01-25T15:21:19.787Z,101185.72
2023-01-25T15:23:48.074Z,101183.59
2023-01-25T15:26:19.570Z,101186.94
2023-01-25T15:28:46.613Z,101168.56
2023-01-25T15:31:18.626Z,101165.03
2023-01-25T15:33:45.621Z,101168.09
2023-01-25T15:36:13.157Z,101161.22
2023-01-25T15:38:39.695Z,101154.06
2023-01-25T15:41:06.234Z,101160.94
2023-01-25T15:43:32.756Z,101159.59
2023-01-25T15:46:00.331Z,101151.06
2023-01-25T15:48:33.874Z,101151.56
2023-01-25T15:51:00.759Z,101154.50
2023-01-25T15:53:27.325Z,101143.56
2023-01-25T15:56:18.263Z,101145.44
2023-01-25T15:58:47.933Z,101130.69
2023-01-25T16:01:14.917Z,101132.63
2023-01-25T16:03:41.814Z,101134.25
2023-01-25T16:06:32.614Z,101127.91
2023-01-25T16:08:59.824Z,101124.34
2023-01-25T16:11:27.488Z,101121.09
2023-01-25T16:13:54.059Z,101123.25
2023-01-25T16:16:22.442Z,101118.03
2023-01-25T16:18:48.921Z,101111.16
2023-01-25T16:21:15.728Z,101108.13
2023-01-25T16:23:42.616Z,101109.22
2023-01-25T16:26:19.735Z,101114.34
2023-01-25T16:28:46.362Z,101110.16
2023-01-25T16:31:31.441Z,101097.50
2023-01-25T16:33:59.323Z,101094.41
2023-01-25T16:36:25.825Z,101097.19
2023-01-25T16:38:52.421Z,101090.00
2023-01-25T16:41:20.407Z,101080.63
2023-01-25T16:43:48.214Z,101081.19
2023-01-25T16:46:19.012Z,101074.00
2023-01-25T16:48:46.735Z,101075.69
2023-01-25T16:51:16.259Z,101071.34
2023-01-25T16:53:42.922Z,101074.16
2023-01-25T16:56:15.822Z,101069.19
2023-01-25T16:58:42.394Z,101073.28
2023-01-25T17:01:10.650Z,101073.38
2023-01-25T17:03:37.056Z,101064.88
2023-01-25T17:06:04.962Z,101063.22
2023-01-25T17:08:31.967Z,101058.50
2023-01-25T17:11:03.960Z,101054.34
2023-01-25T17:13:30.739Z,101057.97
2023-01-25T17:15:57.318Z,101055.53
2023-01-25T17:18:23.990Z,101054.47
2023-01-25T17:21:01.541Z,101052.53
2023-01-25T17:23:28.314Z,101048.44
2023-01-25T17:25:55.711Z,101046.78
2023-01-25T17:28:22.770Z,101042.38
2023-01-25T17:30:53.463Z,101038.25
2023-01-25T17:33:20.798Z,101039.09
2023-01-25T17:35:47.621Z,101035.03
2023-01-25T17:38:14.433Z,101032.56
2023-01-25T17:40:42.019Z,101016.06
2023-01-25T17:43:08.370Z,101023.22
2023-01-25T17:45:39.215Z,101024.88
2023-01-25T17:48:07.697Z,101020.47
2023-01-25T17:50:36.355Z,101022.66
2023-01-25T17:53:04.029Z,101023.22
2023-01-25T17:55:30.520Z,101019.31
2023-01-25T17:57:58.372Z,101007.22
2023-01-25T18:00:24.814Z,101011.94
2023-01-25T18:02:52.188Z,101000.69
2023-01-25T18:05:18.716Z,101007.22
2023-01-25T18:07:47.544Z,101006.69
2023-01-25T18:10:14.053Z,101008.31
2023-01-25T18:12:42.115Z,101003.69
2023-01-25T18:15:09.577Z,100994.56
2023-01-25T18:17:38.424Z,101003.91
2023-01-25T18:20:06.363Z,101000.31
2023-01-25T18:22:32.910Z,101000.03
2023-01-25T18:24:59.376Z,100990.69
2023-01-25T18:27:27.764Z,100988.22
2023-01-25T18:30:22.999Z,100988.25
2023-01-25T18:32:49.439Z,100989.03
2023-01-25T18:35:15.824Z,100988.75
2023-01-25T18:37:45.727Z,100992.63
2023-01-25T18:40:13.993Z,100986.59
2023-01-25T18:42:40.867Z,100978.38
2023-01-25T18:45:09.412Z,100984.13
2023-01-25T18:47:37.118Z,100983.28
2023-01-25T18:50:03.871Z,100983.28
2023-01-25T18:52:30.455Z,100978.03
2023-01-25T18:54:57.375Z,100970.34
2023-01-25T18:57:23.911Z,100968.16
2023-01-25T18:59:50.370Z,100969.00
2023-01-25T19:02:17.104Z,100963.25
2023-01-25T19:04:44.066Z,100952.25
2023-01-25T19:07:10.575Z,100947.56
2023-01-25T19:09:37.127Z,100949.50
2023-01-25T19:12:08.448Z,100945.38
2023-01-25T19:14:36.226Z,100933.81
2023-01-25T19:17:02.794Z,100931.63
2023-01-25T19:19:32.231Z,100927.78
2023-01-25T19:22:08.112Z,100923.69
2023-01-25T19:24:34.826Z,100918.22
2023-01-25T19:27:01.566Z,100908.59
2023-01-25T19:29:29.263Z,100923.41
2023-01-25T19:32:11.257Z,100906.09
2023-01-25T19:34:41.063Z,100902.53
2023-01-25T19:37:08.090Z,100896.22
2023-01-25T19:39:34.741Z,100901.69
2023-01-25T19:42:01.378Z,100895.66
2023-01-25T19:44:28.074Z,100886.88
2023-01-25T19:46:57.373Z,100884.13
2023-01-25T19:49:24.397Z,100891.81
2023-01-25T19:51:53.188Z,100886.34
2023-01-25T19:54:21.764Z,100886.88
2023-01-25T19:56:49.354Z,100886.34
2023-01-25T19:59:18.633Z,100897.59
2023-01-25T20:01:46.244Z,100898.16
2023-01-25T20:04:15.331Z,100895.13
2023-01-25T20:06:43.232Z,100889.63
2023-01-25T20:09:14.151Z,100887.97
2023-01-25T20:11:43.108Z,100884.69
2023-01-25T20:14:12.127Z,100887.97
2023-01-25T20:16:41.793Z,100878.63
2023-01-25T20:19:12.824Z,100875.06
2023-01-25T20:21:39.971Z,100873.13
2023-01-25T20:24:10.162Z,100872.03
2023-01-25T20:26:40.218Z,100873.69
2023-01-25T20:29:08.062Z,100867.66
2023-01-25T20:31:45.690Z,100871.22
2023-01-25T20:34:17.426Z,100877.25
2023-01-25T20:36:44.263Z,100859.69
2023-01-25T20:39:16.482Z,100858.59
2023-01-25T20:41:43.547Z,100862.69
2023-01-25T20:44:11.842Z,100853.91
2023-01-25T20:46:40.547Z,100851.16
2023-01-25T20:49:12.148Z,100840.72
2023-01-25T20:51:38.637Z,100839.06
2023-01-25T20:54:05.115Z,100841.22
2023-01-25T20:56:32.405Z,100829.97
2023-01-25T20:58:58.959Z,100834.66
2023-01-25T21:01:33.192Z,100826.16
2023-01-25T21:04:00.924Z,100817.66
2023-01-25T21:06:31.819Z,100819.84
2023-01-25T21:08:59.311Z,100818.19
2023-01-25T21:11:26.223Z,100827.53
2023-01-25T21:13:53.944Z,100819.56
2023-01-25T21:16:21.941Z,100818.75
2023-01-25T21:18:54.523Z,100818.22
2023-01-25T21:21:29.393Z,100808.59
2023-01-25T21:23:58.981Z,100807.78
2023-01-25T21:26:28.109Z,100792.13
2023-01-25T21:28:55.338Z,100800.63
2023-01-25T21:31:30.069Z,100805.03
2023-01-25T21:33:56.955Z,100800.63
2023-01-25T21:36:23.437Z,100790.75
2023-01-25T21:38:52.004Z,100785.25
2023-01-25T21:41:24.712Z,100785.78
2023-01-25T21:44:12.955Z,100788.81
2023-01-25T21:46:39.915Z,100785.53
2023-01-25T21:49:27.390Z,100784.97
2023-01-25T21:51:55.436Z,100786.34
2023-01-25T21:54:27.095Z,100781.41
2023-01-25T21:56:54.977Z,100782.78
2023-01-25T21:59:22.026Z,100766.28
2023-01-25T22:01:49.252Z,100775.09
2023-01-25T22:04:17.761Z,100774.53
2023-01-25T22:06:48.784Z,100777.28
2023-01-25T22:09:15.868Z,100775.63
2023-01-25T22:11:42.693Z,100776.97
2023-01-25T22:14:09.164Z,100785.50
2023-01-25T22:16:35.565Z,100778.34
2023-01-25T22:19:01.980Z,100780.81
2023-01-25T22:21:31.953Z,100782.47
2023-01-25T22:23:59.889Z,100773.72
2023-01-25T22:26:31.984Z,100764.91
2023-01-25T22:29:00.653Z,100762.97
2023-01-25T22:31:29.876Z,100760.81
2023-01-25T22:33:58.723Z,100750.66
2023-01-25T22:36:28.915Z,100749.28
2023-01-25T22:38:55.397Z,100747.06
2023-01-25T22:41:29.550Z,100742.94
2023-01-25T22:43:56.114Z,100739.66
2023-01-25T22:46:26.955Z,100745.69
2023-01-25T22:48:53.811Z,100737.44
2023-01-25T22:51:25.335Z,100742.94
2023-01-25T22:53:53.944Z,100739.63
2023-01-25T22:56:22.936Z,100740.19
2023-01-25T22:58:50.216Z,100727.28
2023-01-25T23:01:19.520Z,100728.94
2023-01-25T23:03:46.429Z,100725.94
2023-01-25T23:06:18.790Z,100722.91
2023-01-25T23:08:45.750Z,100720.44
2023-01-25T23:11:20.834Z,100712.47
2023-01-25T23:14:06.360Z,100722.63
2023-01-25T23:16:34.217Z,100722.09
2023-01-25T23:19:00.935Z,100710.53
2023-01-25T23:21:29.980Z,100717.13
2023-01-25T23:24:03.664Z,100710.56
2023-01-25T23:26:37.835Z,100708.34
2023-01-25T23:29:12.091Z,100695.72
2023-01-25T23:31:38.536Z,100705.06
2023-01-25T23:34:06.478Z,100691.31
2023-01-25T23:36:35.494Z,100685.56
2023-01-25T23:39:02.011Z,100684.47
2023-01-25T23:41:29.702Z,100687.72
2023-01-25T23:43:56.511Z,100676.19
2023-01-25T23:46:24.052Z,100660.53
2023-01-25T23:48:51.059Z,100669.38
2023-01-25T23:51:18.477Z,100666.88
2023-01-25T23:53:45.331Z,100658.94
2023-01-25T23:56:20.312Z,100661.69
2023-01-25T23:58:47.102Z,100669.34
